createdAt,value
2019-02-06T00:03:09.463Z,68.63
2019-02-06T00:08:14.820Z,67.03
2019-02-06T00:13:20.139Z,73.33
2019-02-06T00:18:25.902Z,78.17
2019-02-06T00:23:31.231Z,79.70
2019-02-06T00:28:35.959Z,80.53
2019-02-06T00:33:41.195Z,72.70
2019-02-06T00:38:46.639Z,72.73
2019-02-06T00:43:51.971Z,73.13
2019-02-06T00:48:57.307Z,75.70
2019-02-06T00:54:03.053Z,54.67
2019-02-06T00:59:08.702Z,18.83
2019-02-06T01:04:13.504Z,43.17
2019-02-06T01:09:18.863Z,58.97
2019-02-06T01:14:24.191Z,56.20
2019-02-06T01:19:29.560Z,38.63
2019-02-06T01:24:35.237Z,67.87
2019-02-06T01:29:40.563Z,34.10
2019-02-06T01:34:46.204Z,42.23
2019-02-06T01:39:50.914Z,42.37
2019-02-06T01:44:55.555Z,40.87
2019-02-06T01:50:00.900Z,52.50
2019-02-06T01:55:06.729Z,34.33
2019-02-06T02:00:22.409Z,47.37
2019-02-06T02:05:27.806Z,58.27
2019-02-06T02:10:33.135Z,50.67
2019-02-06T02:15:38.567Z,56.10
2019-02-06T02:20:43.927Z,77.30
2019-02-06T02:25:48.643Z,69.90
2019-02-06T02:30:55.439Z,63.77
2019-02-06T02:36:00.828Z,17.53
2019-02-06T02:41:06.577Z,52.00
2019-02-06T02:46:11.334Z,59.47
2019-02-06T02:51:16.583Z,62.27
2019-02-06T02:56:21.315Z,35.40
2019-02-06T03:01:38.728Z,44.23
2019-02-06T03:06:43.449Z,15.97
2019-02-06T03:11:49.362Z,77.53
2019-02-06T03:16:54.695Z,32.33
2019-02-06T03:22:00.355Z,54.20
2019-02-06T03:27:05.743Z,62.50
2019-02-06T03:32:11.077Z,88.17
2019-02-06T03:37:17.662Z,76.67
2019-02-06T03:42:22.991Z,71.13
2019-02-06T03:47:28.311Z,76.83
2019-02-06T03:52:33.847Z,48.90
2019-02-06T03:57:38.555Z,61.23
2019-02-06T04:02:43.800Z,70.83
2019-02-06T04:07:48.503Z,57.30
2019-02-06T04:12:53.728Z,55.17
2019-02-06T04:17:59.050Z,86.97
2019-02-06T04:23:04.497Z,15.37
2019-02-06T04:28:10.124Z,53.90
2019-02-06T04:33:15.441Z,49.33
2019-02-06T04:38:20.766Z,65.77
2019-02-06T04:43:26.083Z,35.43
2019-02-06T04:48:32.246Z,68.77
2019-02-06T04:53:37.639Z,31.63
2019-02-06T04:58:42.947Z,15.70
2019-02-06T05:03:47.667Z,45.13
2019-02-06T05:08:52.914Z,78.50
2019-02-06T05:13:58.233Z,76.13
2019-02-06T05:19:03.556Z,87.03
2019-02-06T05:24:08.260Z,77.17
2019-02-06T05:29:13.792Z,69.77
2019-02-06T05:34:19.109Z,75.20
2019-02-06T05:39:24.427Z,99.30
2019-02-06T05:44:29.744Z,102.67
2019-02-06T05:49:35.109Z,90.33
2019-02-06T05:54:40.437Z,78.87
2019-02-06T05:59:46.759Z,76.13
2019-02-06T06:04:52.913Z,84.47
2019-02-06T06:09:58.279Z,103.63
2019-02-06T06:15:03.616Z,99.47
2019-02-06T06:20:10.355Z,105.07
2019-02-06T06:25:16.169Z,119.63
2019-02-06T06:30:22.411Z,118.57
2019-02-06T06:35:27.747Z,133.03
2019-02-06T06:40:33.648Z,112.50
2019-02-06T06:45:39.323Z,128.50
2019-02-06T06:50:44.227Z,132.87
2019-02-06T06:55:50.102Z,135.20
2019-02-06T07:00:56.452Z,116.33
2019-02-06T07:06:02.034Z,151.63
2019-02-06T07:11:08.598Z,137.30
2019-02-06T07:16:13.927Z,161.43
2019-02-06T07:21:19.417Z,138.90
2019-02-06T07:26:25.299Z,141.93
2019-02-06T07:31:30.979Z,92.37
2019-02-06T07:36:36.331Z,97.43
2019-02-06T07:41:41.899Z,109.83
2019-02-06T07:46:47.395Z,108.77
2019-02-06T07:51:52.715Z,81.53
2019-02-06T07:56:58.127Z,48.57
2019-02-06T08:02:03.499Z,98.77
2019-02-06T08:07:08.858Z,84.20
2019-02-06T08:12:13.807Z,59.80
2019-02-06T08:17:19.399Z,35.83
2019-02-06T08:22:24.115Z,66.33
2019-02-06T08:27:29.370Z,33.30
2019-02-06T08:32:34.095Z,28.10
2019-02-06T08:37:39.327Z,43.30
2019-02-06T08:42:44.431Z,31.50
2019-02-06T08:47:49.658Z,52.10
2019-02-06T08:52:54.358Z,43.37
2019-02-06T08:57:59.733Z,50.90
2019-02-06T09:03:06.704Z,40.60
2019-02-06T09:08:12.026Z,40.03
2019-02-06T09:13:17.339Z,48.00
2019-02-06T09:18:22.775Z,51.30
2019-02-06T09:23:28.118Z,49.10
2019-02-06T09:28:33.472Z,43.77
2019-02-06T09:33:38.920Z,52.17
2019-02-06T09:38:43.619Z,48.47
2019-02-06T09:43:48.967Z,38.20
2019-02-06T09:48:55.159Z,51.10
2019-02-06T09:53:59.863Z,19.93
2019-02-06T09:59:05.192Z,23.23
2019-02-06T10:04:09.919Z,34.07
2019-02-06T10:09:22.689Z,37.53
2019-02-06T10:14:22.173Z,39.80
2019-02-06T10:19:27.911Z,38.17
2019-02-06T10:24:33.631Z,13.67
2019-02-06T10:29:39.281Z,40.83
2019-02-06T10:34:44.656Z,46.07
2019-02-06T10:39:50.521Z,49.97
2019-02-06T10:44:56.391Z,41.77
2019-02-06T10:50:02.359Z,43.90
2019-02-06T10:55:09.828Z,45.23
2019-02-06T11:00:21.827Z,46.43
2019-02-06T11:05:26.683Z,54.03
2019-02-06T11:10:32.560Z,46.00
2019-02-06T11:15:37.802Z,47.73
2019-02-06T11:20:43.060Z,46.07
2019-02-06T11:25:48.384Z,50.90
2019-02-06T11:30:55.216Z,57.27
2019-02-06T11:36:00.867Z,51.90
2019-02-06T11:41:06.039Z,60.23
2019-02-06T11:46:11.819Z,63.37
2019-02-06T11:51:17.191Z,60.60
2019-02-06T11:56:22.518Z,57.47
2019-02-06T12:01:34.243Z,56.07
2019-02-06T12:06:39.563Z,57.57
2019-02-06T12:11:45.044Z,50.47
2019-02-06T12:16:50.759Z,60.77
2019-02-06T12:21:56.083Z,58.63
2019-02-06T12:27:01.665Z,49.97
2019-02-06T12:32:07.008Z,56.00
2019-02-06T12:37:12.435Z,54.80
2019-02-06T12:42:17.868Z,44.57
2019-02-06T12:47:23.191Z,42.23
2019-02-06T12:52:27.895Z,41.43
2019-02-06T12:57:37.158Z,34.80
2019-02-06T13:02:40.072Z,42.60
2019-02-06T13:07:45.719Z,40.70
2019-02-06T13:12:51.043Z,47.30
2019-02-06T13:17:56.371Z,57.47
2019-02-06T13:23:01.734Z,40.10
2019-02-06T13:28:07.333Z,48.60
2019-02-06T13:33:12.727Z,53.30
2019-02-06T13:38:18.155Z,48.13
2019-02-06T13:43:23.519Z,43.10
2019-02-06T13:48:28.859Z,37.43
2019-02-06T13:53:34.251Z,42.43
2019-02-06T13:58:39.582Z,37.70
2019-02-06T14:03:44.899Z,39.60
2019-02-06T14:08:50.236Z,42.60
2019-02-06T14:13:55.638Z,36.10
2019-02-06T14:19:00.360Z,32.27
2019-02-06T14:24:34.003Z,34.57
2019-02-06T14:30:32.685Z,35.97
2019-02-06T14:36:25.243Z,33.40
2019-02-06T14:42:20.823Z,38.83
2019-02-06T14:47:44.599Z,37.83
2019-02-06T14:53:01.534Z,34.23
2019-02-06T14:58:14.703Z,46.27
2019-02-06T15:03:58.161Z,34.83
2019-02-06T15:09:39.192Z,33.23
2019-02-06T15:15:00.333Z,30.90
2019-02-06T15:20:26.055Z,37.43
2019-02-06T15:25:52.370Z,31.60
2019-02-06T15:31:40.263Z,34.90
2019-02-06T15:37:10.053Z,45.63
2019-02-06T15:42:37.751Z,34.07
2019-02-06T15:47:48.664Z,35.67
2019-02-06T15:53:05.832Z,37.93
2019-02-06T15:58:29.724Z,36.80
2019-02-06T16:04:15.733Z,36.07
2019-02-06T16:09:39.674Z,36.87
2019-02-06T16:15:38.054Z,32.73
2019-02-06T16:21:04.967Z,35.93
2019-02-06T16:26:15.814Z,37.90
2019-02-06T16:31:48.707Z,35.37
2019-02-06T16:37:27.779Z,52.77
2019-02-06T16:42:51.664Z,52.37
2019-02-06T16:48:18.229Z,48.23
2019-02-06T16:54:07.644Z,59.83
2019-02-06T16:59:34.275Z,65.70
2019-02-06T17:04:48.656Z,48.83
2019-02-06T17:10:27.272Z,52.80
2019-02-06T17:15:40.987Z,51.70
2019-02-06T17:21:07.577Z,52.97
2019-02-06T17:26:26.575Z,99.67
2019-02-06T17:31:39.977Z,88.80
2019-02-06T17:37:01.011Z,71.27
2019-02-06T17:42:15.500Z,58.90
2019-02-06T17:47:45.567Z,43.77
2019-02-06T17:53:08.083Z,46.53
2019-02-06T17:58:13.855Z,48.67
2019-02-06T18:03:18.795Z,72.60
2019-02-06T18:08:24.069Z,106.23
2019-02-06T18:13:30.896Z,46.53
2019-02-06T18:18:36.202Z,65.40
2019-02-06T18:23:40.811Z,92.17
2019-02-06T18:28:46.038Z,61.80
2019-02-06T18:33:52.244Z,79.73
2019-02-06T18:38:56.875Z,70.63
2019-02-06T18:44:02.021Z,83.73
2019-02-06T18:49:06.611Z,39.83
2019-02-06T18:54:11.857Z,33.63
2019-02-06T18:59:17.195Z,37.23
2019-02-06T19:04:22.572Z,32.23
2019-02-06T19:09:28.938Z,37.77
2019-02-06T19:14:33.473Z,68.97
2019-02-06T19:19:38.107Z,72.97
2019-02-06T19:24:42.711Z,51.73
2019-02-06T19:29:47.952Z,65.60
2019-02-06T19:34:52.673Z,84.57
2019-02-06T19:39:57.911Z,52.17
2019-02-06T19:45:02.676Z,40.03
2019-02-06T19:50:11.613Z,45.97
2019-02-06T19:55:16.807Z,30.90
2019-02-06T20:00:22.899Z,40.20
2019-02-06T20:05:28.251Z,42.83
2019-02-06T20:10:35.667Z,66.07
2019-02-06T20:15:40.403Z,63.43
2019-02-06T20:20:45.394Z,43.77
2019-02-06T20:25:50.680Z,64.60
2019-02-06T20:30:55.403Z,71.83
2019-02-06T20:36:00.203Z,40.27
2019-02-06T20:41:04.875Z,52.37
2019-02-06T20:46:10.137Z,49.90
2019-02-06T20:51:14.850Z,41.10
2019-02-06T20:56:19.478Z,50.67
2019-02-06T21:01:24.487Z,48.27
2019-02-06T21:06:29.230Z,19.17
2019-02-06T21:11:33.924Z,35.77
2019-02-06T21:16:39.543Z,47.33
2019-02-06T21:21:44.379Z,38.87
2019-02-06T21:26:49.213Z,38.33
2019-02-06T21:31:54.183Z,62.07
2019-02-06T21:36:58.887Z,22.77
2019-02-06T21:42:03.728Z,25.03
2019-02-06T21:47:09.036Z,38.73
2019-02-06T21:52:14.352Z,45.07
2019-02-06T21:57:19.489Z,32.70
2019-02-06T22:02:24.511Z,29.53
2019-02-06T22:07:29.167Z,26.03
2019-02-06T22:12:34.639Z,23.67
2019-02-06T22:17:40.257Z,44.63
2019-02-06T22:22:45.324Z,42.03
2019-02-06T22:27:51.143Z,32.40
2019-02-06T22:32:57.011Z,32.27
2019-02-06T22:38:02.192Z,30.70
2019-02-06T22:43:09.904Z,57.80
2019-02-06T22:48:14.631Z,24.07
2019-02-06T22:53:19.332Z,33.63
2019-02-06T22:58:24.203Z,60.13
2019-02-06T23:03:30.288Z,23.73
2019-02-06T23:08:35.966Z,47.47
2019-02-06T23:13:40.579Z,36.67
2019-02-06T23:18:45.471Z,51.10
2019-02-06T23:23:51.776Z,34.07
2019-02-06T23:28:56.546Z,43.73
2019-02-06T23:34:01.815Z,29.87
2019-02-06T23:39:12.683Z,37.40
2019-02-06T23:44:28.329Z,26.20
2019-02-06T23:49:24.852Z,35.37
2019-02-06T23:54:29.856Z,48.63
2019-02-06T23:59:34.480Z,37.20
